Weather at Airlift Ljosland

Public forecast

Using degrees Celsius for public forecast. Weather courtesy of forecast.io.

Closest aviation weather report (METAR) to Airlift Ljosland

Closest report is Kristiansand Airport, Kjevik, 42.0 nm (77.7 km) SSE. Retrieved 2021/10/22 03:20 UTC (0 seconds ago):

ENCN 220320Z AUTO 30003KT 260V330 9999 NCD 03/M00 Q0992

Closest aviation forecast (TAF) to Airlift Ljosland

Forecast is more than 12 hours old.

Closest forecast is Kristiansand Airport, Kjevik, 42.0 nm (77.7 km) SSE. Retrieved 2016/05/06 12:39 UTC (5 years ago):

TAF TAF ENCN 061100Z 0612/0712 14008KT 9999 FEW040